createdAt,value
2023-03-22T00:02:48.754Z,17.52
2023-03-22T00:07:50.289Z,19.55
2023-03-22T00:12:50.530Z,19.40
2023-03-22T00:17:50.537Z,19.95
2023-03-22T00:22:49.361Z,19.70
2023-03-22T00:27:48.197Z,19.45
2023-03-22T00:32:48.593Z,20.13
2023-03-22T00:37:47.558Z,20.27
2023-03-22T00:42:46.345Z,20.52
2023-03-22T00:47:45.163Z,19.75
2023-03-22T00:52:45.512Z,20.25
2023-03-22T00:57:44.548Z,19.13
2023-03-22T01:02:44.055Z,19.33
2023-03-22T01:07:50.943Z,23.35
2023-03-22T01:12:49.793Z,22.30
2023-03-22T01:17:49.193Z,21.50
2023-03-22T01:22:49.512Z,20.90
2023-03-22T01:27:48.322Z,19.95
2023-03-22T01:32:47.078Z,20.35
2023-03-22T01:37:46.761Z,20.73
2023-03-22T01:42:47.625Z,21.13
2023-03-22T01:47:53.815Z,20.05
2023-03-22T01:52:54.432Z,18.57
2023-03-22T01:57:58.811Z,19.50
2023-03-22T02:03:13.881Z,21.85
2023-03-22T02:08:19.421Z,18.48
2023-03-22T02:13:42.435Z,21.05
2023-03-22T02:19:12.413Z,19.02
2023-03-22T02:24:45.394Z,19.73
2023-03-22T02:29:50.167Z,18.75
2023-03-22T02:35:22.514Z,19.08
2023-03-22T02:40:31.313Z,16.85
2023-03-22T02:45:35.625Z,17.10
2023-03-22T02:50:42.104Z,18.30
2023-03-22T02:55:47.376Z,19.15
2023-03-22T03:00:49.522Z,18.60
2023-03-22T03:05:53.985Z,19.13
2023-03-22T03:10:55.040Z,19.23
2023-03-22T03:15:57.440Z,19.92
2023-03-22T03:21:04.017Z,18.05
2023-03-22T03:26:10.614Z,18.05
2023-03-22T03:31:21.479Z,20.33
2023-03-22T03:36:23.638Z,20.05
2023-03-22T03:41:29.059Z,21.37
2023-03-22T03:46:29.242Z,20.25
2023-03-22T03:51:29.116Z,22.67
2023-03-22T03:56:29.313Z,20.85
2023-03-22T04:01:29.300Z,20.80
2023-03-22T04:06:41.020Z,18.65
2023-03-22T04:11:49.730Z,20.25
2023-03-22T04:16:49.371Z,18.92
2023-03-22T04:21:53.330Z,19.40
2023-03-22T04:26:53.869Z,19.88
2023-03-22T04:31:57.747Z,18.50
2023-03-22T04:37:08.128Z,20.00
2023-03-22T04:42:19.508Z,16.88
2023-03-22T04:47:20.420Z,18.02
2023-03-22T04:52:19.434Z,19.27
2023-03-22T04:57:26.050Z,20.75
2023-03-22T05:02:25.098Z,20.67
2023-03-22T05:07:24.990Z,21.23
2023-03-22T05:17:32.041Z,18.58
2023-03-22T05:22:34.850Z,24.58
2023-03-22T05:27:39.124Z,19.33
2023-03-22T05:33:02.363Z,18.50
2023-03-22T05:38:06.170Z,18.17
2023-03-22T05:43:09.643Z,18.65
2023-03-22T05:48:12.995Z,18.02
2023-03-22T05:53:12.740Z,19.42
2023-03-22T05:58:39.764Z,21.02
2023-03-22T06:03:41.102Z,21.40
2023-03-22T06:08:52.526Z,19.88
2023-03-22T06:13:53.094Z,19.10
2023-03-22T06:18:55.194Z,19.08
2023-03-22T06:23:54.084Z,17.35
2023-03-22T06:28:55.344Z,18.08
2023-03-22T06:33:55.894Z,16.70
2023-03-22T06:39:13.456Z,16.20
2023-03-22T06:44:17.354Z,15.93
2023-03-22T06:49:22.820Z,14.10
2023-03-22T06:54:24.389Z,13.13
2023-03-22T06:59:24.725Z,16.25
2023-03-22T07:04:24.296Z,16.98
2023-03-22T07:09:24.184Z,17.63
2023-03-22T07:14:27.489Z,16.13
2023-03-22T07:19:34.589Z,17.80
2023-03-22T07:24:47.288Z,15.75
2023-03-22T07:29:55.369Z,16.02
2023-03-22T07:34:54.786Z,16.80
2023-03-22T07:39:53.613Z,17.58
2023-03-22T07:44:54.198Z,19.08
2023-03-22T07:50:14.130Z,22.50
2023-03-22T07:55:15.863Z,17.90
2023-03-22T08:00:17.402Z,17.13
2023-03-22T08:05:25.893Z,17.15
2023-03-22T08:10:32.828Z,17.63
2023-03-22T08:15:34.154Z,14.77
2023-03-22T08:20:34.192Z,16.13
2023-03-22T08:25:38.331Z,16.15
2023-03-22T08:30:42.509Z,13.63
2023-03-22T08:35:42.576Z,13.73
2023-03-22T08:40:41.574Z,13.38
2023-03-22T08:45:40.607Z,13.65
2023-03-22T08:50:48.529Z,11.77
2023-03-22T08:55:58.164Z,11.70
2023-03-22T09:01:13.655Z,10.88
2023-03-22T09:06:32.890Z,11.43
2023-03-22T09:11:32.623Z,10.45
2023-03-22T09:16:31.737Z,10.48
2023-03-22T09:21:34.061Z,11.70
2023-03-22T09:26:41.608Z,12.13
2023-03-22T09:31:40.943Z,9.95
2023-03-22T09:36:49.334Z,10.75
2023-03-22T09:41:55.137Z,9.45
2023-03-22T09:46:57.382Z,10.65
2023-03-22T09:51:58.147Z,9.35
2023-03-22T09:57:02.134Z,8.50
2023-03-22T10:02:04.837Z,8.82
2023-03-22T10:07:12.898Z,7.13
2023-03-22T10:12:21.581Z,7.68
2023-03-22T10:17:27.172Z,7.85
2023-03-22T10:22:32.495Z,7.28
2023-03-22T10:27:32.761Z,7.05
2023-03-22T10:32:51.052Z,7.72
2023-03-22T10:37:59.444Z,8.23
2023-03-22T10:43:01.875Z,6.60
2023-03-22T10:48:03.965Z,7.72
2023-03-22T10:53:07.063Z,7.30
2023-03-22T11:03:28.663Z,8.40
2023-03-22T11:08:28.926Z,8.20
2023-03-22T11:13:27.900Z,8.25
2023-03-22T11:18:32.334Z,7.75
2023-03-22T11:23:35.007Z,8.50
2023-03-22T11:28:37.483Z,8.80
2023-03-22T11:33:37.770Z,8.02
2023-03-22T11:38:40.252Z,9.13
2023-03-22T11:43:42.451Z,9.48
2023-03-22T11:48:43.804Z,10.03
2023-03-22T11:53:46.084Z,9.10
2023-03-22T11:59:00.825Z,10.45
2023-03-22T12:04:04.461Z,10.90
2023-03-22T12:09:11.637Z,9.88
2023-03-22T12:14:19.669Z,9.65
2023-03-22T12:19:28.470Z,9.52
2023-03-22T12:24:31.610Z,11.13
2023-03-22T12:29:30.805Z,9.57
2023-03-22T12:34:38.298Z,9.73
2023-03-22T12:39:42.302Z,9.57
2023-03-22T12:44:55.512Z,9.45
2023-03-22T12:50:06.800Z,9.13
2023-03-22T12:55:10.814Z,11.00
2023-03-22T13:05:17.520Z,12.55
2023-03-22T13:10:59.962Z,11.40
2023-03-22T13:16:02.672Z,11.90
2023-03-22T13:21:14.235Z,9.82
2023-03-22T13:26:17.510Z,9.95
2023-03-22T13:31:32.881Z,8.25
2023-03-22T13:36:33.285Z,8.45
2023-03-22T13:41:36.137Z,9.35
2023-03-22T13:51:49.990Z,7.70
2023-03-22T13:56:56.385Z,9.40
2023-03-22T14:02:01.173Z,9.10
2023-03-22T14:07:01.338Z,9.05
2023-03-22T14:12:09.671Z,8.77
2023-03-22T14:17:18.406Z,6.97
